createdAt,value
2022-08-03T00:00:30.974Z,15.92
2022-08-03T00:01:30.964Z,15.76
2022-08-03T00:02:30.941Z,15.67
2022-08-03T00:03:32.090Z,15.61
2022-08-03T00:04:34.012Z,15.58
2022-08-03T00:05:30.946Z,15.47
2022-08-03T00:06:36.519Z,15.43
2022-08-03T00:07:31.919Z,15.47
2022-08-03T00:08:30.911Z,15.65
2022-08-03T00:09:35.534Z,15.79
2022-08-03T00:10:31.966Z,15.79
2022-08-03T00:11:30.878Z,15.86
2022-08-03T00:12:30.882Z,15.82
2022-08-03T00:13:30.888Z,15.70
2022-08-03T00:14:30.871Z,15.62
2022-08-03T00:15:30.955Z,15.64
2022-08-03T00:16:30.871Z,15.51
2022-08-03T00:17:30.849Z,15.46
2022-08-03T00:18:31.838Z,15.52
2022-08-03T00:19:30.825Z,15.75
2022-08-03T00:20:30.826Z,15.73
2022-08-03T00:21:30.868Z,15.75
2022-08-03T00:22:30.812Z,15.65
2022-08-03T00:23:51.804Z,15.67
2022-08-03T00:24:31.800Z,15.64
2022-08-03T00:25:30.825Z,15.70
2022-08-03T00:26:30.844Z,15.64
2022-08-03T00:27:32.574Z,15.62
2022-08-03T00:28:30.758Z,15.44
2022-08-03T00:29:30.759Z,15.54
2022-08-03T00:30:31.019Z,15.44
2022-08-03T00:31:52.279Z,15.59
2022-08-03T00:32:31.780Z,15.68
2022-08-03T00:33:30.721Z,16.00
2022-08-03T00:34:57.893Z,16.04
2022-08-03T00:35:49.245Z,15.80
2022-08-03T00:36:31.706Z,15.70
2022-08-03T00:37:40.711Z,15.58
2022-08-03T00:38:31.688Z,15.37
2022-08-03T00:39:30.679Z,15.43
2022-08-03T00:40:30.682Z,15.52
2022-08-03T00:41:31.665Z,15.57
2022-08-03T00:42:30.698Z,15.40
2022-08-03T00:43:30.796Z,15.61
2022-08-03T00:44:30.647Z,15.55
2022-08-03T00:45:30.660Z,15.19
2022-08-03T00:46:30.628Z,15.11
2022-08-03T00:47:30.657Z,15.22
2022-08-03T00:48:33.383Z,15.40
2022-08-03T00:49:30.675Z,15.39
2022-08-03T00:50:30.601Z,15.47
2022-08-03T00:51:30.652Z,15.52
2022-08-03T00:52:30.717Z,15.58
2022-08-03T00:53:30.609Z,15.52
2022-08-03T00:54:30.635Z,15.47
2022-08-03T00:55:30.548Z,15.47
2022-08-03T00:56:30.570Z,15.42
2022-08-03T00:57:30.561Z,15.43
2022-08-03T00:58:30.546Z,15.40
2022-08-03T00:59:30.581Z,15.35
2022-08-03T01:00:30.529Z,15.35
2022-08-03T01:01:32.396Z,15.22
2022-08-03T01:02:30.521Z,15.15
2022-08-03T01:03:30.519Z,15.09
2022-08-03T01:04:30.525Z,15.11
2022-08-03T01:05:30.546Z,15.28
2022-08-03T01:06:30.489Z,15.36
2022-08-03T01:07:30.484Z,15.51
2022-08-03T01:08:30.478Z,15.54
2022-08-03T01:09:30.464Z,15.47
2022-08-03T01:10:31.671Z,15.36
2022-08-03T01:11:30.452Z,15.42
2022-08-03T01:12:30.444Z,15.44
2022-08-03T01:14:01.175Z,15.44
2022-08-03T01:14:31.425Z,15.36
2022-08-03T01:15:30.466Z,15.17
2022-08-03T01:16:36.516Z,15.04
2022-08-03T01:17:31.409Z,15.07
2022-08-03T01:18:30.396Z,14.91
2022-08-03T01:19:30.390Z,14.88
2022-08-03T01:20:30.408Z,14.72
2022-08-03T01:21:30.429Z,14.82
2022-08-03T01:22:30.363Z,14.82
2022-08-03T01:23:30.375Z,14.89
2022-08-03T01:24:30.360Z,14.92
2022-08-03T01:25:30.365Z,14.99
2022-08-03T01:26:30.341Z,15.15
2022-08-03T01:27:30.392Z,15.22
2022-08-03T01:28:30.327Z,15.33
2022-08-03T01:29:30.330Z,15.40
2022-08-03T01:30:30.345Z,15.06
2022-08-03T01:31:30.309Z,14.82
2022-08-03T01:33:00.126Z,14.66
2022-08-03T01:33:31.303Z,14.77
2022-08-03T01:34:30.293Z,14.77
2022-08-03T01:35:30.294Z,14.70
2022-08-03T01:36:30.279Z,14.70
2022-08-03T01:37:30.269Z,14.85
2022-08-03T01:38:30.304Z,14.94
2022-08-03T01:39:30.259Z,15.00
2022-08-03T01:40:30.270Z,15.07
2022-08-03T01:41:30.241Z,15.14
2022-08-03T01:42:30.256Z,15.11
2022-08-03T01:43:55.405Z,15.09
2022-08-03T01:44:31.301Z,15.11
2022-08-03T01:45:34.242Z,15.11
2022-08-03T01:46:30.202Z,15.06
2022-08-03T01:47:30.197Z,15.06
2022-08-03T01:48:30.187Z,14.92
2022-08-03T01:49:30.292Z,14.88
2022-08-03T01:50:30.184Z,14.70
2022-08-03T01:51:57.722Z,14.63
2022-08-03T01:52:31.154Z,14.53
2022-08-03T01:53:30.169Z,14.48
2022-08-03T01:54:30.194Z,14.63
2022-08-03T01:55:30.135Z,14.77
2022-08-03T01:56:30.136Z,15.00
2022-08-03T01:57:30.122Z,15.14
2022-08-03T01:58:30.106Z,15.17
2022-08-03T01:59:30.110Z,15.27
2022-08-03T02:00:30.174Z,15.15
2022-08-03T02:02:28.106Z,15.17
2022-08-03T02:02:34.166Z,15.09
2022-08-03T02:03:30.077Z,14.73
2022-08-03T02:04:30.091Z,14.65
2022-08-03T02:05:30.171Z,14.66
2022-08-03T02:07:00.623Z,14.60
2022-08-03T02:07:31.071Z,14.72
2022-08-03T02:08:30.050Z,14.66
2022-08-03T02:09:30.043Z,14.70
2022-08-03T02:10:34.850Z,14.65
2022-08-03T02:11:31.078Z,14.78
2022-08-03T02:12:31.019Z,14.79
2022-08-03T02:13:30.012Z,14.69
2022-08-03T02:14:30.001Z,14.66
2022-08-03T02:15:30.021Z,14.53
2022-08-03T02:16:30.073Z,14.51
2022-08-03T02:17:39.160Z,14.53
2022-08-03T02:18:29.974Z,14.54
2022-08-03T02:19:35.279Z,14.54
2022-08-03T02:20:31.972Z,14.48
2022-08-03T02:21:55.646Z,14.41
2022-08-03T02:22:31.000Z,14.25
2022-08-03T02:23:29.967Z,14.15
2022-08-03T02:24:29.939Z,14.18
2022-08-03T02:25:29.949Z,14.41
2022-08-03T02:26:29.920Z,14.36
2022-08-03T02:27:29.968Z,14.36
2022-08-03T02:28:29.912Z,14.41
2022-08-03T02:29:39.299Z,14.43
2022-08-03T02:30:30.890Z,14.48
2022-08-03T02:31:29.889Z,14.45
2022-08-03T02:32:29.897Z,14.18
2022-08-03T02:33:29.948Z,14.17
2022-08-03T02:34:29.865Z,14.08
2022-08-03T02:35:29.863Z,14.17
2022-08-03T02:36:29.862Z,14.37
2022-08-03T02:37:29.843Z,14.41
2022-08-03T02:38:29.881Z,14.55
2022-08-03T02:39:29.856Z,14.51
2022-08-03T02:40:29.818Z,14.65
2022-08-03T02:41:29.808Z,14.66
2022-08-03T02:42:29.807Z,14.44
2022-08-03T02:43:29.825Z,14.26
2022-08-03T02:44:30.855Z,14.15
2022-08-03T02:45:29.795Z,14.32
2022-08-03T02:46:29.779Z,14.33
2022-08-03T02:47:54.082Z,14.35
2022-08-03T02:48:30.763Z,14.36
2022-08-03T02:49:40.623Z,14.30
2022-08-03T02:50:30.747Z,14.25
2022-08-03T02:51:29.739Z,14.25
2022-08-03T02:52:29.783Z,14.29
2022-08-03T02:53:29.739Z,14.44
2022-08-03T02:54:29.763Z,14.41
2022-08-03T02:55:29.767Z,14.50
2022-08-03T02:56:29.722Z,14.53
2022-08-03T02:57:29.685Z,14.40
2022-08-03T02:58:29.683Z,14.08
2022-08-03T02:59:29.677Z,14.08
2022-08-03T03:00:29.753Z,14.08
2022-08-03T03:01:29.808Z,13.97
2022-08-03T03:02:29.662Z,13.86
2022-08-03T03:03:29.812Z,13.79
2022-08-03T03:04:32.994Z,13.92
2022-08-03T03:05:55.932Z,14.18
2022-08-03T03:06:30.670Z,14.26
2022-08-03T03:07:29.620Z,14.35
2022-08-03T03:08:29.613Z,14.40
2022-08-03T03:09:40.248Z,14.37
2022-08-03T03:10:30.629Z,14.20
2022-08-03T03:11:29.657Z,14.22
2022-08-03T03:12:29.582Z,14.00
2022-08-03T03:13:29.583Z,13.92
2022-08-03T03:14:33.971Z,13.99
2022-08-03T03:15:29.574Z,14.04
2022-08-03T03:16:29.557Z,14.05
2022-08-03T03:17:29.667Z,14.08
2022-08-03T03:18:29.561Z,14.12
2022-08-03T03:19:29.544Z,14.04
2022-08-03T03:20:30.613Z,13.92
2022-08-03T03:21:29.593Z,13.96
2022-08-03T03:22:29.563Z,13.79
2022-08-03T03:23:29.504Z,13.85
2022-08-03T03:24:29.502Z,13.81
2022-08-03T03:25:29.501Z,13.75
2022-08-03T03:26:29.494Z,13.87
2022-08-03T03:27:29.470Z,13.81
2022-08-03T03:28:29.515Z,13.72
2022-08-03T03:29:29.459Z,13.83
2022-08-03T03:30:29.457Z,13.85
2022-08-03T03:31:29.431Z,13.87
2022-08-03T03:32:29.446Z,13.83
2022-08-03T03:33:29.485Z,13.86
2022-08-03T03:34:29.481Z,13.74
2022-08-03T03:35:29.431Z,13.63
2022-08-03T03:36:29.414Z,13.60
2022-08-03T03:37:29.465Z,13.63
2022-08-03T03:38:29.400Z,13.59
2022-08-03T03:39:29.447Z,13.62
2022-08-03T03:40:29.375Z,13.63
2022-08-03T03:41:29.368Z,13.60
2022-08-03T03:42:29.366Z,13.65
2022-08-03T03:43:29.399Z,13.62
2022-08-03T03:44:29.401Z,13.68
2022-08-03T03:45:29.354Z,13.72
2022-08-03T03:46:29.360Z,13.75
2022-08-03T03:47:32.576Z,13.68
2022-08-03T03:48:29.319Z,13.78
2022-08-03T03:49:29.350Z,13.62
2022-08-03T03:50:29.384Z,13.50
2022-08-03T03:51:29.318Z,13.46
2022-08-03T03:52:29.321Z,13.49
2022-08-03T03:53:29.292Z,13.56
2022-08-03T03:54:29.320Z,13.63
2022-08-03T03:55:29.333Z,13.59
2022-08-03T03:56:29.283Z,13.67
2022-08-03T03:57:29.338Z,13.71
2022-08-03T03:58:29.258Z,13.70
2022-08-03T03:59:29.372Z,13.67
2022-08-03T04:00:29.289Z,13.62
2022-08-03T04:01:29.262Z,13.56
2022-08-03T04:02:29.248Z,13.72
2022-08-03T04:03:29.242Z,13.72
2022-08-03T04:04:29.301Z,13.72
2022-08-03T04:05:29.225Z,13.78
2022-08-03T04:06:29.264Z,13.75
2022-08-03T04:07:29.176Z,13.90
2022-08-03T04:08:29.183Z,13.77
2022-08-03T04:09:29.271Z,13.77
2022-08-03T04:10:29.166Z,13.78
2022-08-03T04:11:30.271Z,13.93
2022-08-03T04:12:29.213Z,13.86
2022-08-03T04:13:29.141Z,13.96
2022-08-03T04:14:29.192Z,14.11
2022-08-03T04:15:29.137Z,14.30
2022-08-03T04:16:29.123Z,14.37
2022-08-03T04:17:29.205Z,14.33
2022-08-03T04:18:29.892Z,14.50
2022-08-03T04:19:29.220Z,14.51
2022-08-03T04:20:29.124Z,14.50
2022-08-03T04:21:29.076Z,14.69
2022-08-03T04:22:29.105Z,14.63
2022-08-03T04:23:29.118Z,14.55
2022-08-03T04:24:29.085Z,14.33
2022-08-03T04:25:29.091Z,14.26
2022-08-03T04:26:29.054Z,14.17
2022-08-03T04:27:29.035Z,14.14
2022-08-03T04:28:31.217Z,14.23
2022-08-03T04:29:29.070Z,14.29
2022-08-03T04:30:29.051Z,14.44
2022-08-03T04:31:29.018Z,14.51
2022-08-03T04:32:29.023Z,14.62
2022-08-03T04:33:29.673Z,14.62
2022-08-03T04:34:29.064Z,14.77
2022-08-03T04:36:02.322Z,14.82
2022-08-03T04:36:29.986Z,14.77
2022-08-03T04:37:28.969Z,14.73
2022-08-03T04:38:28.969Z,14.72
2022-08-03T04:39:29.000Z,14.77
2022-08-03T04:40:29.736Z,14.73
2022-08-03T04:41:28.944Z,14.79
2022-08-03T04:42:28.956Z,14.91
2022-08-03T04:43:28.927Z,15.07
2022-08-03T04:44:28.952Z,15.06
2022-08-03T04:45:28.997Z,15.07
2022-08-03T04:46:28.922Z,15.22
2022-08-03T04:47:28.891Z,15.25
2022-08-03T04:48:28.893Z,15.31
2022-08-03T04:49:28.973Z,15.22
2022-08-03T04:50:28.945Z,15.27
2022-08-03T04:51:28.865Z,15.21
2022-08-03T04:52:28.872Z,15.29
2022-08-03T04:53:28.852Z,15.28
2022-08-03T04:54:28.851Z,15.37
2022-08-03T04:55:28.842Z,15.47
2022-08-03T04:56:28.891Z,15.61
2022-08-03T04:57:28.824Z,15.64
2022-08-03T04:58:28.831Z,15.68
2022-08-03T04:59:28.840Z,15.65
2022-08-03T05:00:28.823Z,15.83
2022-08-03T05:01:28.950Z,15.90
2022-08-03T05:02:28.795Z,16.04
2022-08-03T05:03:28.782Z,16.09
2022-08-03T05:04:28.770Z,16.20
2022-08-03T05:05:48.848Z,16.24
2022-08-03T05:06:29.781Z,16.31
2022-08-03T05:07:35.498Z,16.29
2022-08-03T05:08:29.754Z,16.32
2022-08-03T05:09:52.599Z,16.46
2022-08-03T05:10:29.778Z,16.46
2022-08-03T05:11:28.728Z,16.58
2022-08-03T05:12:32.561Z,16.61
2022-08-03T05:13:29.714Z,16.78
2022-08-03T05:14:28.695Z,16.81
2022-08-03T05:15:28.717Z,16.87
2022-08-03T05:16:28.681Z,16.90
2022-08-03T05:17:28.686Z,16.90
2022-08-03T05:18:28.675Z,17.01
2022-08-03T05:19:28.658Z,17.02
2022-08-03T05:20:28.737Z,17.16
2022-08-03T05:21:41.657Z,17.12
2022-08-03T05:22:29.638Z,17.15
2022-08-03T05:23:28.682Z,17.30
2022-08-03T05:24:28.635Z,17.27
2022-08-03T05:25:28.662Z,17.44
2022-08-03T05:26:28.746Z,17.51
2022-08-03T05:27:28.632Z,17.54
2022-08-03T05:28:28.599Z,17.60
2022-08-03T05:29:28.628Z,17.65
2022-08-03T05:30:34.161Z,17.65
2022-08-03T05:31:29.580Z,17.70
2022-08-03T05:32:28.577Z,17.76
2022-08-03T05:33:28.574Z,17.80
2022-08-03T05:34:28.568Z,17.79
2022-08-03T05:35:57.557Z,17.83
2022-08-03T05:36:29.574Z,17.86
2022-08-03T05:37:28.570Z,17.98
2022-08-03T05:38:33.971Z,17.95
2022-08-03T05:39:29.529Z,17.95
2022-08-03T05:40:29.529Z,17.98
2022-08-03T05:41:37.294Z,18.08
2022-08-03T05:42:28.530Z,17.92
2022-08-03T05:43:28.503Z,18.05
2022-08-03T05:44:28.508Z,18.16
2022-08-03T05:45:28.860Z,18.23
2022-08-03T05:46:29.520Z,18.29
2022-08-03T05:47:28.488Z,18.31
2022-08-03T05:48:28.476Z,18.41
2022-08-03T05:49:28.593Z,18.26
2022-08-03T05:50:28.457Z,18.38
2022-08-03T05:51:28.496Z,18.40
2022-08-03T05:52:28.460Z,18.40
2022-08-03T05:53:28.435Z,18.59
2022-08-03T05:54:55.517Z,18.50
2022-08-03T05:55:29.421Z,18.59
2022-08-03T05:56:28.488Z,18.71
2022-08-03T05:57:28.401Z,18.68
2022-08-03T05:58:29.948Z,18.59
2022-08-03T05:59:38.194Z,18.68
2022-08-03T06:00:30.385Z,18.84
2022-08-03T06:01:28.408Z,18.78
2022-08-03T06:02:28.410Z,18.73
2022-08-03T06:03:28.366Z,18.71
2022-08-03T06:04:28.376Z,18.75
2022-08-03T06:05:28.338Z,18.75
2022-08-03T06:06:32.207Z,18.93
2022-08-03T06:07:29.617Z,18.84
2022-08-03T06:08:28.318Z,19.07
2022-08-03T06:09:31.837Z,19.07
2022-08-03T06:10:36.753Z,19.15
2022-08-03T06:11:29.296Z,19.12
2022-08-03T06:12:28.363Z,19.12
2022-08-03T06:13:28.275Z,18.89
2022-08-03T06:14:28.299Z,18.84
2022-08-03T06:15:28.277Z,18.90
2022-08-03T06:16:28.356Z,18.98
2022-08-03T06:17:28.344Z,19.14
2022-08-03T06:18:29.241Z,19.30
2022-08-03T06:19:28.252Z,19.39
2022-08-03T06:20:28.230Z,19.36
2022-08-03T06:21:28.215Z,19.44
2022-08-03T06:22:28.213Z,19.51
2022-08-03T06:23:54.157Z,19.59
2022-08-03T06:24:30.194Z,19.55
2022-08-03T06:25:28.187Z,19.63
2022-08-03T06:26:28.316Z,19.74
2022-08-03T06:27:36.822Z,19.82
2022-08-03T06:28:53.054Z,19.95
2022-08-03T06:29:30.147Z,19.92
2022-08-03T06:30:28.152Z,20.06
2022-08-03T06:31:32.885Z,20.16
2022-08-03T06:32:29.134Z,20.16
2022-08-03T06:34:31.296Z,20.19
2022-08-03T06:34:34.902Z,20.24
2022-08-03T06:35:29.130Z,20.31
2022-08-03T06:36:28.108Z,20.48
2022-08-03T06:37:28.113Z,20.39
2022-08-03T06:38:28.140Z,20.40
2022-08-03T06:39:28.101Z,20.44
2022-08-03T06:40:28.079Z,20.56
2022-08-03T06:41:28.091Z,20.65
2022-08-03T06:42:28.102Z,20.66
2022-08-03T06:43:28.115Z,20.82
2022-08-03T06:44:29.048Z,20.90
2022-08-03T06:45:31.741Z,20.87
2022-08-03T06:46:28.036Z,20.93
2022-08-03T06:47:28.045Z,21.00
2022-08-03T06:48:28.054Z,21.22
2022-08-03T06:49:28.113Z,21.20
2022-08-03T06:50:28.115Z,21.32
2022-08-03T06:52:05.802Z,21.35
2022-08-03T06:52:37.544Z,21.42
2022-08-03T06:53:27.991Z,21.55
2022-08-03T06:54:27.992Z,21.55
2022-08-03T06:55:28.148Z,21.58
2022-08-03T06:56:27.965Z,21.67
2022-08-03T06:57:27.953Z,21.69
2022-08-03T06:58:27.943Z,21.75
2022-08-03T07:00:10.023Z,21.76
2022-08-03T07:00:28.930Z,21.88
2022-08-03T07:01:27.984Z,22.00
2022-08-03T07:02:28.410Z,22.02
2022-08-03T07:03:27.913Z,22.00
2022-08-03T07:04:27.948Z,22.11
2022-08-03T07:05:27.925Z,22.06
2022-08-03T07:06:27.907Z,22.20
2022-08-03T07:07:27.878Z,22.18
2022-08-03T07:08:33.631Z,22.39
2022-08-03T07:09:27.963Z,22.44
2022-08-03T07:10:27.896Z,22.57
2022-08-03T07:11:27.855Z,22.51
2022-08-03T07:12:27.911Z,22.50
2022-08-03T07:13:28.830Z,22.70
2022-08-03T07:14:27.830Z,22.73
2022-08-03T07:15:53.778Z,22.72
2022-08-03T07:16:28.819Z,22.72
2022-08-03T07:17:27.818Z,22.78
2022-08-03T07:18:29.762Z,22.81
2022-08-03T07:19:27.801Z,22.90
2022-08-03T07:20:30.971Z,22.90
2022-08-03T07:21:28.773Z,22.94
2022-08-03T07:22:27.793Z,22.99
2022-08-03T07:23:27.767Z,23.23
2022-08-03T07:24:27.763Z,23.10
2022-08-03T07:25:27.744Z,23.25
2022-08-03T07:26:27.821Z,23.50
2022-08-03T07:27:27.743Z,23.55
2022-08-03T07:28:27.722Z,23.51
2022-08-03T07:29:27.721Z,23.51
2022-08-03T07:30:27.723Z,23.51
2022-08-03T07:31:27.802Z,23.51
2022-08-03T07:32:28.695Z,23.62
2022-08-03T07:33:27.693Z,23.50
2022-08-03T07:34:27.682Z,23.62
2022-08-03T07:35:27.686Z,23.65
2022-08-03T07:36:27.682Z,23.77
2022-08-03T07:37:27.714Z,23.96
2022-08-03T07:38:27.661Z,24.11
2022-08-03T07:39:27.659Z,24.14
2022-08-03T07:40:31.718Z,24.23
2022-08-03T07:41:27.625Z,24.38
2022-08-03T07:42:27.697Z,24.42
2022-08-03T07:43:27.620Z,24.47
2022-08-03T07:44:27.624Z,24.58
2022-08-03T07:45:27.612Z,24.55
2022-08-03T07:46:27.607Z,24.68
2022-08-03T07:47:35.673Z,24.76
2022-08-03T07:48:28.647Z,24.88
2022-08-03T07:49:27.641Z,24.81
2022-08-03T07:50:27.583Z,24.91
2022-08-03T07:51:27.570Z,25.01
2022-08-03T07:52:28.527Z,24.84
2022-08-03T07:53:28.602Z,24.85
2022-08-03T07:54:27.543Z,24.84
2022-08-03T07:55:27.540Z,24.95
2022-08-03T07:56:27.536Z,25.16
2022-08-03T07:57:27.528Z,25.14
2022-08-03T07:58:27.573Z,25.03
2022-08-03T07:59:27.514Z,25.03
2022-08-03T08:00:27.505Z,25.13
2022-08-03T08:01:27.607Z,25.29
2022-08-03T08:02:28.319Z,25.58
2022-08-03T08:03:27.491Z,25.63
2022-08-03T08:04:28.616Z,25.58
2022-08-03T08:05:27.469Z,25.75
2022-08-03T08:06:27.474Z,25.83
2022-08-03T08:07:27.455Z,25.75
2022-08-03T08:08:27.449Z,25.87
2022-08-03T08:09:27.548Z,25.87
2022-08-03T08:10:27.440Z,25.91
2022-08-03T08:11:27.431Z,25.93
2022-08-03T08:12:27.469Z,26.03
2022-08-03T08:13:27.419Z,26.19
2022-08-03T08:14:27.420Z,26.31
2022-08-03T08:15:28.466Z,26.52
2022-08-03T08:16:27.400Z,26.44
2022-08-03T08:17:27.431Z,26.43
2022-08-03T08:18:27.437Z,26.56
2022-08-03T08:19:27.403Z,26.48
2022-08-03T08:20:30.708Z,26.63
2022-08-03T08:21:27.480Z,26.71
2022-08-03T08:22:30.392Z,26.78
2022-08-03T08:23:42.199Z,26.81
2022-08-03T08:24:28.490Z,26.84
2022-08-03T08:25:27.317Z,26.95
2022-08-03T08:26:27.375Z,26.90
2022-08-03T08:27:27.319Z,27.03
2022-08-03T08:28:32.765Z,26.92
2022-08-03T08:29:28.295Z,27.07
2022-08-03T08:30:27.291Z,27.05
2022-08-03T08:31:27.336Z,27.18
2022-08-03T08:32:27.278Z,27.22
2022-08-03T08:33:37.365Z,27.42
2022-08-03T08:34:29.269Z,27.51
2022-08-03T08:35:27.268Z,27.59
2022-08-03T08:36:27.306Z,27.63
2022-08-03T08:37:27.316Z,27.71
2022-08-03T08:38:27.235Z,27.71
2022-08-03T08:39:27.257Z,27.78
2022-08-03T08:40:27.221Z,27.89
2022-08-03T08:41:32.329Z,28.05
2022-08-03T08:42:28.249Z,28.11
2022-08-03T08:43:27.221Z,28.08
2022-08-03T08:44:27.205Z,28.05
2022-08-03T08:45:27.180Z,28.20
2022-08-03T08:46:27.189Z,28.30
2022-08-03T08:47:27.172Z,28.35
2022-08-03T08:48:27.226Z,28.20
2022-08-03T08:49:27.191Z,28.29
2022-08-03T08:50:28.103Z,28.42
2022-08-03T08:51:51.030Z,28.63
2022-08-03T08:52:29.737Z,28.78
2022-08-03T08:53:27.572Z,28.93
2022-08-03T08:54:28.141Z,28.85
2022-08-03T08:55:27.145Z,28.89
2022-08-03T08:56:27.094Z,28.98
2022-08-03T08:57:42.274Z,28.96
2022-08-03T08:58:29.098Z,28.88
2022-08-03T08:59:27.083Z,28.84
2022-08-03T09:00:28.155Z,28.82
2022-08-03T09:01:27.093Z,28.96
2022-08-03T09:02:27.057Z,29.01
2022-08-03T09:03:30.291Z,29.04
2022-08-03T09:04:27.063Z,29.04
2022-08-03T09:05:53.696Z,29.05
2022-08-03T09:06:29.035Z,29.05
2022-08-03T09:07:27.048Z,29.07
2022-08-03T09:08:27.027Z,29.02
2022-08-03T09:09:28.504Z,28.82
2022-08-03T09:10:29.117Z,29.01
2022-08-03T09:11:52.395Z,29.14
2022-08-03T09:12:43.102Z,29.20
2022-08-03T09:13:29.015Z,29.34
2022-08-03T09:14:36.819Z,29.26
2022-08-03T09:15:28.092Z,29.29
2022-08-03T09:16:27.004Z,29.41
2022-08-03T09:17:26.967Z,29.34
2022-08-03T09:18:26.969Z,29.34
2022-08-03T09:19:26.962Z,29.38
2022-08-03T09:20:26.954Z,29.49
2022-08-03T09:21:34.876Z,29.68
2022-08-03T09:22:28.977Z,29.75
2022-08-03T09:23:59.711Z,29.61
2022-08-03T09:24:41.315Z,29.71
2022-08-03T09:25:28.941Z,29.69
2022-08-03T09:26:26.972Z,29.45
2022-08-03T09:27:26.925Z,29.31
2022-08-03T09:28:54.031Z,29.50
2022-08-03T09:29:27.896Z,29.68
2022-08-03T09:30:33.781Z,29.79
2022-08-03T09:31:27.941Z,29.95
2022-08-03T09:32:26.889Z,29.91
2022-08-03T09:33:26.875Z,30.00
2022-08-03T09:34:27.887Z,30.27
2022-08-03T09:35:51.779Z,30.44
2022-08-03T09:36:28.909Z,30.10
2022-08-03T09:38:12.525Z,29.81
2022-08-03T09:38:27.849Z,30.05
2022-08-03T09:39:37.481Z,29.75
2022-08-03T09:40:27.836Z,30.09
2022-08-03T09:41:26.839Z,30.46
2022-08-03T09:42:26.926Z,30.62
2022-08-03T09:43:26.844Z,30.68
2022-08-03T09:44:26.861Z,30.43
2022-08-03T09:45:26.886Z,30.25
2022-08-03T09:46:26.805Z,30.39
2022-08-03T09:47:28.378Z,30.32
2022-08-03T09:48:26.791Z,30.34
2022-08-03T09:49:26.902Z,30.68
2022-08-03T09:50:26.803Z,30.80
2022-08-03T09:52:22.991Z,31.07
2022-08-03T09:52:38.651Z,31.22
2022-08-03T09:53:27.768Z,31.27
2022-08-03T09:54:26.757Z,31.31
2022-08-03T09:56:33.879Z,30.55
2022-08-03T09:56:35.839Z,30.94
2022-08-03T09:57:27.766Z,30.44
2022-08-03T09:58:26.739Z,30.10
2022-08-03T09:59:26.726Z,30.23
2022-08-03T10:00:26.713Z,30.47
2022-08-03T10:01:26.780Z,30.53
2022-08-03T10:02:26.748Z,30.65
2022-08-03T10:03:26.698Z,30.78
2022-08-03T10:04:27.338Z,30.84
2022-08-03T10:05:26.687Z,30.73
2022-08-03T10:06:29.134Z,30.91
2022-08-03T10:07:26.675Z,30.94
2022-08-03T10:08:26.693Z,30.85
2022-08-03T10:09:26.674Z,30.48
2022-08-03T10:10:30.496Z,30.47
2022-08-03T10:11:27.644Z,30.53
2022-08-03T10:12:26.637Z,30.37
2022-08-03T10:13:26.673Z,30.53
2022-08-03T10:14:26.619Z,30.75
2022-08-03T10:16:21.203Z,30.63
2022-08-03T10:16:27.613Z,30.51
2022-08-03T10:17:26.611Z,30.66
2022-08-03T10:18:26.646Z,30.53
2022-08-03T10:19:26.588Z,30.83
2022-08-03T10:20:29.195Z,31.22
2022-08-03T10:21:26.576Z,31.62
2022-08-03T10:22:26.559Z,32.23
2022-08-03T10:23:27.847Z,32.36
2022-08-03T10:24:26.584Z,32.45
2022-08-03T10:25:33.316Z,32.38
2022-08-03T10:26:27.541Z,32.77
2022-08-03T10:27:26.539Z,32.87
2022-08-03T10:28:26.520Z,32.52
2022-08-03T10:29:26.548Z,32.40
2022-08-03T10:30:26.518Z,32.38
2022-08-03T10:31:26.520Z,32.33
2022-08-03T10:32:26.496Z,32.70
2022-08-03T10:33:51.464Z,33.45
2022-08-03T10:34:27.522Z,33.46
2022-08-03T10:35:26.470Z,33.80
2022-08-03T10:36:27.483Z,33.01
2022-08-03T10:37:26.465Z,33.39
2022-08-03T10:38:26.464Z,33.64
2022-08-03T10:39:26.480Z,33.71
2022-08-03T10:40:46.802Z,32.63
2022-08-03T10:41:28.535Z,32.63
2022-08-03T10:42:26.546Z,32.36
2022-08-03T10:43:26.432Z,32.38
2022-08-03T10:44:26.453Z,33.19
2022-08-03T10:45:26.433Z,33.55
2022-08-03T10:46:26.419Z,33.43
2022-08-03T10:47:26.429Z,33.99
2022-08-03T10:48:26.411Z,34.01
2022-08-03T10:49:34.722Z,33.61
2022-08-03T10:50:28.383Z,34.20
2022-08-03T10:51:26.395Z,34.33
2022-08-03T10:52:32.981Z,33.71
2022-08-03T10:53:26.382Z,33.42
2022-08-03T10:54:26.527Z,34.25
2022-08-03T10:55:26.346Z,35.14
2022-08-03T10:56:41.446Z,35.22
2022-08-03T10:57:27.335Z,34.97
2022-08-03T10:58:30.604Z,34.92
2022-08-03T10:59:27.721Z,34.67
2022-08-03T11:00:26.383Z,33.34
2022-08-03T11:01:26.319Z,33.61
2022-08-03T11:02:27.299Z,33.20
2022-08-03T11:03:26.307Z,33.00
2022-08-03T11:04:26.401Z,33.62
2022-08-03T11:05:26.289Z,33.98
2022-08-03T11:06:26.285Z,33.62
2022-08-03T11:07:26.259Z,33.31
2022-08-03T11:08:26.258Z,33.89
2022-08-03T11:09:26.241Z,33.87
2022-08-03T11:10:26.287Z,33.43
2022-08-03T11:11:26.259Z,33.53
2022-08-03T11:12:28.303Z,33.86
2022-08-03T11:13:27.220Z,33.71
2022-08-03T11:14:26.207Z,34.01
2022-08-03T11:15:26.230Z,34.39
2022-08-03T11:16:26.204Z,35.18
2022-08-03T11:17:26.186Z,35.79
2022-08-03T11:18:27.013Z,36.17
2022-08-03T11:19:27.700Z,35.89
2022-08-03T11:20:26.209Z,34.77
2022-08-03T11:21:30.151Z,35.12
2022-08-03T11:22:27.148Z,35.29
2022-08-03T11:24:02.661Z,35.26
2022-08-03T11:24:27.129Z,34.38
2022-08-03T11:25:53.336Z,34.06
2022-08-03T11:26:27.110Z,34.36
2022-08-03T11:27:26.127Z,34.78
2022-08-03T11:28:26.095Z,33.95
2022-08-03T11:29:26.084Z,33.73
2022-08-03T11:30:27.756Z,33.96
2022-08-03T11:31:49.267Z,34.85
2022-08-03T11:32:28.075Z,35.71
2022-08-03T11:33:26.119Z,34.61
2022-08-03T11:34:26.070Z,34.35
2022-08-03T11:35:26.081Z,34.62
2022-08-03T11:36:31.983Z,34.51
2022-08-03T11:37:31.478Z,34.77
2022-08-03T11:38:28.031Z,34.92
2022-08-03T11:39:26.034Z,35.55
2022-08-03T11:40:26.012Z,34.61
2022-08-03T11:41:26.029Z,34.33
2022-08-03T11:42:25.990Z,35.18
2022-08-03T11:43:30.654Z,35.52
2022-08-03T11:44:26.997Z,35.34
2022-08-03T11:45:25.974Z,35.71
2022-08-03T11:46:28.618Z,36.77
2022-08-03T11:47:25.949Z,35.85
2022-08-03T11:48:25.949Z,34.70
2022-08-03T11:49:26.009Z,35.05
2022-08-03T11:50:25.923Z,36.33
2022-08-03T11:51:25.968Z,36.35
2022-08-03T11:52:27.306Z,35.85
2022-08-03T11:53:25.912Z,35.58
2022-08-03T11:54:25.912Z,35.70
2022-08-03T11:55:30.337Z,35.55
2022-08-03T11:56:26.925Z,36.00
2022-08-03T11:58:57.732Z,37.21
2022-08-03T11:59:00.900Z,36.98
2022-08-03T11:59:26.877Z,37.45
2022-08-03T12:00:26.224Z,37.64
2022-08-03T12:01:25.930Z,36.59
2022-08-03T12:02:25.844Z,36.25
2022-08-03T12:03:25.962Z,35.78
2022-08-03T12:04:25.846Z,35.42
2022-08-03T12:05:25.840Z,35.64
2022-08-03T12:06:25.850Z,36.33
2022-08-03T12:08:02.532Z,36.33
2022-08-03T12:08:26.825Z,36.00
2022-08-03T12:09:25.810Z,35.64
2022-08-03T12:10:25.819Z,35.00
2022-08-03T12:11:25.843Z,36.12
2022-08-03T12:12:26.035Z,36.89
2022-08-03T12:14:44.358Z,37.40
2022-08-03T12:14:48.492Z,36.62
2022-08-03T12:15:26.850Z,35.74
2022-08-03T12:16:25.833Z,35.36
2022-08-03T12:17:25.765Z,34.30
2022-08-03T12:18:25.972Z,34.97
2022-08-03T12:19:25.759Z,36.37
2022-08-03T12:20:34.810Z,36.05
2022-08-03T12:21:26.759Z,35.76
2022-08-03T12:22:25.733Z,35.11
2022-08-03T12:23:25.769Z,34.89
2022-08-03T12:24:26.968Z,35.90
2022-08-03T12:25:38.466Z,37.14
2022-08-03T12:26:26.781Z,38.20
2022-08-03T12:27:25.714Z,38.08
2022-08-03T12:28:37.322Z,37.70
2022-08-03T12:29:26.685Z,37.07
2022-08-03T12:30:25.681Z,36.89
2022-08-03T12:31:25.681Z,37.64
2022-08-03T12:32:25.708Z,38.30
2022-08-03T12:33:25.678Z,38.61
2022-08-03T12:34:25.652Z,39.55
2022-08-03T12:35:26.657Z,39.72
2022-08-03T12:36:25.646Z,38.69
2022-08-03T12:37:25.955Z,37.53
2022-08-03T12:38:26.655Z,36.92
2022-08-03T12:39:25.634Z,37.29
2022-08-03T12:40:28.081Z,37.90
2022-08-03T12:41:26.617Z,38.69
2022-08-03T12:42:25.624Z,39.49
2022-08-03T12:43:25.608Z,39.62
2022-08-03T12:44:26.598Z,39.18
2022-08-03T12:45:25.596Z,38.02
2022-08-03T12:46:25.597Z,37.65
2022-08-03T12:47:25.600Z,38.26
2022-08-03T12:48:25.571Z,37.93
2022-08-03T12:49:25.678Z,37.49
2022-08-03T12:50:25.587Z,36.25
2022-08-03T12:51:25.555Z,35.33
2022-08-03T12:52:25.571Z,35.98